sensor_id;sensor_type;location;lat;lon;timestamp;P1;durP1;ratioP1;P2;durP2;ratioP2
52554;SDS011;38455;52.710;6.502;2022-09-09T00:03:43;13.18;;;5.15;;
52554;SDS011;38455;52.710;6.502;2022-09-09T00:06:24;7.35;;;4.47;;
52554;SDS011;38455;52.710;6.502;2022-09-09T00:09:06;7.03;;;3.97;;
52554;SDS011;38455;52.710;6.502;2022-09-09T00:17:23;16.42;;;4.72;;
52554;SDS011;38455;52.710;6.502;2022-09-09T00:20:20;7.03;;;4.60;;
52554;SDS011;38455;52.710;6.502;2022-09-09T00:22:47;12.07;;;4.68;;
52554;SDS011;38455;52.710;6.502;2022-09-09T00:25:42;9.77;;;4.97;;
52554;SDS011;38455;52.710;6.502;2022-09-09T00:28:30;12.13;;;4.25;;
52554;SDS011;38455;52.710;6.502;2022-09-09T00:30:59;7.90;;;4.35;;
52554;SDS011;38455;52.710;6.502;2022-09-09T00:33:35;7.20;;;4.30;;
52554;SDS011;38455;52.710;6.502;2022-09-09T00:36:04;9.65;;;4.20;;
52554;SDS011;38455;52.710;6.502;2022-09-09T00:38:42;10.77;;;4.55;;
52554;SDS011;38455;52.710;6.502;2022-09-09T00:41:26;12.05;;;4.70;;
52554;SDS011;38455;52.710;6.502;2022-09-09T00:44:17;9.73;;;4.13;;
52554;SDS011;38455;52.710;6.502;2022-09-09T00:52:27;10.70;;;4.20;;
52554;SDS011;38455;52.710;6.502;2022-09-09T00:55:06;8.70;;;5.05;;
52554;SDS011;38455;52.710;6.502;2022-09-09T00:57:46;14.02;;;5.07;;
52554;SDS011;38455;52.710;6.502;2022-09-09T01:00:18;7.10;;;3.70;;
52554;SDS011;38455;52.710;6.502;2022-09-09T01:05:12;8.20;;;4.75;;
52554;SDS011;38455;52.710;6.502;2022-09-09T01:07:45;10.82;;;4.97;;
52554;SDS011;38455;52.710;6.502;2022-09-09T01:10:26;8.93;;;3.72;;
52554;SDS011;38455;52.710;6.502;2022-09-09T01:13:13;9.48;;;4.35;;
52554;SDS011;38455;52.710;6.502;2022-09-09T01:15:50;7.50;;;3.67;;
52554;SDS011;38455;52.710;6.502;2022-09-09T01:18:19;17.48;;;6.05;;
52554;SDS011;38455;52.710;6.502;2022-09-09T01:23:44;10.63;;;3.70;;
52554;SDS011;38455;52.710;6.502;2022-09-09T01:28:54;10.13;;;3.30;;
52554;SDS011;38455;52.710;6.502;2022-09-09T01:31:27;4.95;;;2.58;;
52554;SDS011;38455;52.710;6.502;2022-09-09T01:36:27;12.27;;;3.13;;
52554;SDS011;38455;52.710;6.502;2022-09-09T01:39:00;9.13;;;3.60;;
52554;SDS011;38455;52.710;6.502;2022-09-09T01:41:26;7.72;;;3.70;;
52554;SDS011;38455;52.710;6.502;2022-09-09T01:43:52;10.10;;;3.70;;
52554;SDS011;38455;52.710;6.502;2022-09-09T01:46:19;9.80;;;4.30;;
52554;SDS011;38455;52.710;6.502;2022-09-09T01:48:47;7.65;;;3.85;;
52554;SDS011;38455;52.710;6.502;2022-09-09T01:51:15;8.43;;;4.05;;
52554;SDS011;38455;52.710;6.502;2022-09-09T01:53:40;12.60;;;4.13;;
52554;SDS011;38455;52.710;6.502;2022-09-09T02:01:59;9.85;;;4.15;;
52554;SDS011;38455;52.710;6.502;2022-09-09T02:04:50;8.25;;;4.53;;
52554;SDS011;38455;52.710;6.502;2022-09-09T02:09:45;8.95;;;4.35;;
52554;SDS011;38455;52.710;6.502;2022-09-09T02:12:16;11.05;;;5.05;;
52554;SDS011;38455;52.710;6.502;2022-09-09T02:14:47;9.60;;;4.90;;
52554;SDS011;38455;52.710;6.502;2022-09-09T02:17:22;11.75;;;4.80;;
52554;SDS011;38455;52.710;6.502;2022-09-09T02:19:54;10.45;;;5.15;;
52554;SDS011;38455;52.710;6.502;2022-09-09T02:22:28;8.52;;;4.80;;
52554;SDS011;38455;52.710;6.502;2022-09-09T02:24:59;10.48;;;5.55;;
52554;SDS011;38455;52.710;6.502;2022-09-09T02:27:25;9.98;;;4.70;;
52554;SDS011;38455;52.710;6.502;2022-09-09T02:29:51;9.25;;;5.10;;
52554;SDS011;38455;52.710;6.502;2022-09-09T02:32:20;6.93;;;4.22;;
52554;SDS011;38455;52.710;6.502;2022-09-09T02:34:49;9.20;;;5.60;;
52554;SDS011;38455;52.710;6.502;2022-09-09T02:37:20;7.72;;;4.90;;
52554;SDS011;38455;52.710;6.502;2022-09-09T02:39:50;15.25;;;5.95;;
52554;SDS011;38455;52.710;6.502;2022-09-09T02:42:15;9.80;;;5.00;;
52554;SDS011;38455;52.710;6.502;2022-09-09T02:44:41;8.38;;;5.55;;
52554;SDS011;38455;52.710;6.502;2022-09-09T02:49:52;12.00;;;7.13;;
52554;SDS011;38455;52.710;6.502;2022-09-09T02:52:30;11.07;;;6.03;;
52554;SDS011;38455;52.710;6.502;2022-09-09T02:55:11;12.75;;;5.65;;
52554;SDS011;38455;52.710;6.502;2022-09-09T03:00:12;8.50;;;5.57;;
52554;SDS011;38455;52.710;6.502;2022-09-09T03:02:38;8.65;;;5.78;;
52554;SDS011;38455;52.710;6.502;2022-09-09T03:05:04;8.70;;;5.10;;
52554;SDS011;38455;52.710;6.502;2022-09-09T03:07:31;11.38;;;5.32;;
52554;SDS011;38455;52.710;6.502;2022-09-09T03:09:56;6.88;;;5.10;;
52554;SDS011;38455;52.710;6.502;2022-09-09T03:12:23;8.70;;;5.43;;
52554;SDS011;38455;52.710;6.502;2022-09-09T03:14:48;7.32;;;5.05;;
52554;SDS011;38455;52.710;6.502;2022-09-09T03:17:14;9.02;;;5.10;;
52554;SDS011;38455;52.710;6.502;2022-09-09T03:19:40;6.82;;;4.95;;
52554;SDS011;38455;52.710;6.502;2022-09-09T03:22:06;7.50;;;4.50;;
52554;SDS011;38455;52.710;6.502;2022-09-09T03:24:34;6.55;;;4.75;;
52554;SDS011;38455;52.710;6.502;2022-09-09T03:27:00;8.02;;;4.88;;
52554;SDS011;38455;52.710;6.502;2022-09-09T03:29:26;6.43;;;4.60;;
52554;SDS011;38455;52.710;6.502;2022-09-09T03:31:51;10.18;;;5.05;;
52554;SDS011;38455;52.710;6.502;2022-09-09T03:34:17;8.85;;;4.95;;
52554;SDS011;38455;52.710;6.502;2022-09-09T03:36:42;8.57;;;4.85;;
52554;SDS011;38455;52.710;6.502;2022-09-09T03:39:08;12.82;;;5.78;;
52554;SDS011;38455;52.710;6.502;2022-09-09T03:41:34;10.70;;;5.03;;
52554;SDS011;38455;52.710;6.502;2022-09-09T03:43:59;11.38;;;4.60;;
52554;SDS011;38455;52.710;6.502;2022-09-09T03:46:25;7.97;;;5.18;;
52554;SDS011;38455;52.710;6.502;2022-09-09T03:48:51;8.85;;;4.70;;
52554;SDS011;38455;52.710;6.502;2022-09-09T03:51:17;9.27;;;5.63;;
52554;SDS011;38455;52.710;6.502;2022-09-09T03:53:43;11.00;;;5.65;;
52554;SDS011;38455;52.710;6.502;2022-09-09T03:56:09;10.15;;;5.38;;
52554;SDS011;38455;52.710;6.502;2022-09-09T03:58:35;9.75;;;5.55;;
52554;SDS011;38455;52.710;6.502;2022-09-09T04:01:03;9.50;;;5.75;;
52554;SDS011;38455;52.710;6.502;2022-09-09T04:03:38;15.90;;;6.95;;
52554;SDS011;38455;52.710;6.502;2022-09-09T04:06:04;12.35;;;6.63;;
52554;SDS011;38455;52.710;6.502;2022-09-09T04:08:32;9.40;;;6.28;;
52554;SDS011;38455;52.710;6.502;2022-09-09T04:10:58;10.50;;;7.03;;
52554;SDS011;38455;52.710;6.502;2022-09-09T04:13:25;10.13;;;6.13;;
52554;SDS011;38455;52.710;6.502;2022-09-09T04:15:52;13.13;;;6.70;;
52554;SDS011;38455;52.710;6.502;2022-09-09T04:18:18;12.75;;;7.40;;
52554;SDS011;38455;52.710;6.502;2022-09-09T04:20:46;10.73;;;6.22;;
52554;SDS011;38455;52.710;6.502;2022-09-09T04:23:12;12.00;;;7.00;;
52554;SDS011;38455;52.710;6.502;2022-09-09T04:25:42;11.38;;;6.65;;
52554;SDS011;38455;52.710;6.502;2022-09-09T04:28:09;12.38;;;7.38;;
52554;SDS011;38455;52.710;6.502;2022-09-09T04:30:35;13.40;;;6.68;;
52554;SDS011;38455;52.710;6.502;2022-09-09T04:33:01;11.63;;;7.55;;
52554;SDS011;38455;52.710;6.502;2022-09-09T04:35:26;11.60;;;7.22;;
52554;SDS011;38455;52.710;6.502;2022-09-09T04:37:52;12.63;;;7.35;;
52554;SDS011;38455;52.710;6.502;2022-09-09T04:40:17;9.73;;;6.85;;
52554;SDS011;38455;52.710;6.502;2022-09-09T04:42:43;11.75;;;7.03;;
52554;SDS011;38455;52.710;6.502;2022-09-09T04:45:09;10.98;;;6.40;;
52554;SDS011;38455;52.710;6.502;2022-09-09T04:47:36;10.27;;;6.88;;
52554;SDS011;38455;52.710;6.502;2022-09-09T04:50:02;11.05;;;6.80;;
52554;SDS011;38455;52.710;6.502;2022-09-09T04:52:27;9.77;;;6.68;;
52554;SDS011;38455;52.710;6.502;2022-09-09T04:54:53;12.38;;;7.15;;
52554;SDS011;38455;52.710;6.502;2022-09-09T04:57:19;13.02;;;7.40;;
52554;SDS011;38455;52.710;6.502;2022-09-09T04:59:45;13.52;;;6.43;;
52554;SDS011;38455;52.710;6.502;2022-09-09T05:02:11;11.57;;;6.68;;
52554;SDS011;38455;52.710;6.502;2022-09-09T05:04:36;11.80;;;6.07;;
52554;SDS011;38455;52.710;6.502;2022-09-09T05:07:02;10.95;;;6.47;;
52554;SDS011;38455;52.710;6.502;2022-09-09T05:09:28;10.80;;;6.50;;
52554;SDS011;38455;52.710;6.502;2022-09-09T05:11:54;10.15;;;6.50;;
52554;SDS011;38455;52.710;6.502;2022-09-09T05:14:20;10.07;;;6.57;;
52554;SDS011;38455;52.710;6.502;2022-09-09T05:16:47;11.13;;;6.25;;
52554;SDS011;38455;52.710;6.502;2022-09-09T05:19:15;12.85;;;6.32;;
52554;SDS011;38455;52.710;6.502;2022-09-09T05:21:40;12.32;;;6.90;;
52554;SDS011;38455;52.710;6.502;2022-09-09T05:24:06;11.75;;;6.25;;
52554;SDS011;38455;52.710;6.502;2022-09-09T05:26:32;9.30;;;6.20;;
52554;SDS011;38455;52.710;6.502;2022-09-09T05:28:58;14.63;;;7.43;;
52554;SDS011;38455;52.710;6.502;2022-09-09T05:31:25;9.02;;;6.15;;
52554;SDS011;38455;52.710;6.502;2022-09-09T05:33:53;10.85;;;6.68;;
52554;SDS011;38455;52.710;6.502;2022-09-09T05:36:19;8.30;;;6.05;;
52554;SDS011;38455;52.710;6.502;2022-09-09T05:38:46;8.25;;;6.22;;
52554;SDS011;38455;52.710;6.502;2022-09-09T05:41:13;16.77;;;6.70;;
52554;SDS011;38455;52.710;6.502;2022-09-09T05:43:42;9.73;;;5.55;;
52554;SDS011;38455;52.710;6.502;2022-09-09T05:46:30;9.13;;;6.00;;
52554;SDS011;38455;52.710;6.502;2022-09-09T05:48:55;12.23;;;6.07;;
52554;SDS011;38455;52.710;6.502;2022-09-09T05:51:24;8.98;;;6.20;;
52554;SDS011;38455;52.710;6.502;2022-09-09T05:53:51;10.23;;;5.78;;
52554;SDS011;38455;52.710;6.502;2022-09-09T05:56:18;10.32;;;6.15;;
52554;SDS011;38455;52.710;6.502;2022-09-09T05:58:46;12.43;;;5.93;;
52554;SDS011;38455;52.710;6.502;2022-09-09T06:01:16;8.95;;;5.70;;
52554;SDS011;38455;52.710;6.502;2022-09-09T06:03:52;10.20;;;5.47;;
52554;SDS011;38455;52.710;6.502;2022-09-09T06:06:19;10.98;;;5.55;;
52554;SDS011;38455;52.710;6.502;2022-09-09T06:08:46;11.13;;;5.60;;
52554;SDS011;38455;52.710;6.502;2022-09-09T06:11:16;11.90;;;5.45;;
52554;SDS011;38455;52.710;6.502;2022-09-09T06:13:47;15.82;;;5.05;;
52554;SDS011;38455;52.710;6.502;2022-09-09T06:16:17;10.98;;;5.20;;
52554;SDS011;38455;52.710;6.502;2022-09-09T06:18:44;8.77;;;5.60;;
52554;SDS011;38455;52.710;6.502;2022-09-09T06:21:17;10.00;;;6.05;;
52554;SDS011;38455;52.710;6.502;2022-09-09T06:23:44;8.55;;;5.25;;
52554;SDS011;38455;52.710;6.502;2022-09-09T06:26:14;11.38;;;5.70;;
52554;SDS011;38455;52.710;6.502;2022-09-09T06:28:43;10.98;;;6.00;;
52554;SDS011;38455;52.710;6.502;2022-09-09T06:31:10;10.63;;;6.18;;
52554;SDS011;38455;52.710;6.502;2022-09-09T06:33:38;10.90;;;6.00;;
52554;SDS011;38455;52.710;6.502;2022-09-09T06:36:06;6.90;;;4.60;;
52554;SDS011;38455;52.710;6.502;2022-09-09T06:38:36;10.05;;;5.07;;
52554;SDS011;38455;52.710;6.502;2022-09-09T06:41:02;7.22;;;4.38;;
52554;SDS011;38455;52.710;6.502;2022-09-09T06:43:28;10.90;;;5.00;;
52554;SDS011;38455;52.710;6.502;2022-09-09T06:46:03;7.95;;;5.25;;
52554;SDS011;38455;52.710;6.502;2022-09-09T06:48:40;9.90;;;5.25;;
52554;SDS011;38455;52.710;6.502;2022-09-09T06:53:49;14.05;;;5.55;;
52554;SDS011;38455;52.710;6.502;2022-09-09T06:58:43;11.80;;;5.43;;
52554;SDS011;38455;52.710;6.502;2022-09-09T07:01:11;8.50;;;4.50;;
52554;SDS011;38455;52.710;6.502;2022-09-09T07:03:38;12.60;;;4.88;;
52554;SDS011;38455;52.710;6.502;2022-09-09T07:06:05;10.52;;;4.75;;
52554;SDS011;38455;52.710;6.502;2022-09-09T07:08:32;7.68;;;3.88;;
52554;SDS011;38455;52.710;6.502;2022-09-09T07:11:02;9.32;;;4.18;;
52554;SDS011;38455;52.710;6.502;2022-09-09T07:13:32;8.13;;;3.92;;
52554;SDS011;38455;52.710;6.502;2022-09-09T07:16:05;12.98;;;4.03;;
52554;SDS011;38455;52.710;6.502;2022-09-09T07:18:36;9.93;;;3.95;;
52554;SDS011;38455;52.710;6.502;2022-09-09T07:21:02;8.60;;;3.50;;
52554;SDS011;38455;52.710;6.502;2022-09-09T07:23:29;6.85;;;3.10;;
52554;SDS011;38455;52.710;6.502;2022-09-09T07:25:55;6.18;;;3.10;;
52554;SDS011;38455;52.710;6.502;2022-09-09T07:28:22;5.47;;;2.90;;
52554;SDS011;38455;52.710;6.502;2022-09-09T07:33:24;6.60;;;3.35;;
52554;SDS011;38455;52.710;6.502;2022-09-09T07:35:51;7.82;;;3.00;;
52554;SDS011;38455;52.710;6.502;2022-09-09T07:38:17;11.18;;;4.10;;
52554;SDS011;38455;52.710;6.502;2022-09-09T07:40:43;4.75;;;2.92;;
52554;SDS011;38455;52.710;6.502;2022-09-09T07:43:09;9.13;;;3.50;;
52554;SDS011;38455;52.710;6.502;2022-09-09T07:45:35;7.50;;;3.47;;
52554;SDS011;38455;52.710;6.502;2022-09-09T07:48:01;8.98;;;3.22;;
52554;SDS011;38455;52.710;6.502;2022-09-09T07:50:28;5.88;;;2.30;;
52554;SDS011;38455;52.710;6.502;2022-09-09T07:52:53;4.80;;;2.33;;
52554;SDS011;38455;52.710;6.502;2022-09-09T07:55:19;6.28;;;2.50;;
52554;SDS011;38455;52.710;6.502;2022-09-09T07:57:46;9.38;;;2.70;;
52554;SDS011;38455;52.710;6.502;2022-09-09T08:00:12;6.50;;;3.05;;
52554;SDS011;38455;52.710;6.502;2022-09-09T08:02:39;7.45;;;2.50;;
52554;SDS011;38455;52.710;6.502;2022-09-09T08:05:05;8.00;;;3.00;;
52554;SDS011;38455;52.710;6.502;2022-09-09T08:07:31;6.88;;;2.72;;
52554;SDS011;38455;52.710;6.502;2022-09-09T08:09:57;10.63;;;3.25;;
52554;SDS011;38455;52.710;6.502;2022-09-09T08:12:23;9.80;;;3.15;;
52554;SDS011;38455;52.710;6.502;2022-09-09T08:14:48;7.32;;;2.55;;
52554;SDS011;38455;52.710;6.502;2022-09-09T08:17:14;4.45;;;2.53;;
52554;SDS011;38455;52.710;6.502;2022-09-09T08:19:40;8.88;;;2.67;;
52554;SDS011;38455;52.710;6.502;2022-09-09T08:22:05;7.55;;;3.03;;
52554;SDS011;38455;52.710;6.502;2022-09-09T08:24:32;7.22;;;2.30;;
52554;SDS011;38455;52.710;6.502;2022-09-09T08:26:58;7.80;;;2.20;;
52554;SDS011;38455;52.710;6.502;2022-09-09T08:29:24;7.78;;;2.60;;
52554;SDS011;38455;52.710;6.502;2022-09-09T08:31:51;5.68;;;2.90;;
52554;SDS011;38455;52.710;6.502;2022-09-09T08:34:19;6.25;;;2.45;;
52554;SDS011;38455;52.710;6.502;2022-09-09T08:36:46;8.27;;;2.70;;
52554;SDS011;38455;52.710;6.502;2022-09-09T08:39:14;7.25;;;2.25;;
52554;SDS011;38455;52.710;6.502;2022-09-09T08:44:42;7.90;;;2.38;;
52554;SDS011;38455;52.710;6.502;2022-09-09T08:50:30;7.65;;;2.00;;
52554;SDS011;38455;52.710;6.502;2022-09-09T08:58:14;8.33;;;3.23;;
52554;SDS011;38455;52.710;6.502;2022-09-09T09:03:26;7.10;;;2.35;;
52554;SDS011;38455;52.710;6.502;2022-09-09T09:06:08;10.27;;;2.28;;
52554;SDS011;38455;52.710;6.502;2022-09-09T09:11:33;6.22;;;1.90;;
52554;SDS011;38455;52.710;6.502;2022-09-09T09:14:04;8.82;;;2.35;;
52554;SDS011;38455;52.710;6.502;2022-09-09T09:19:18;5.97;;;1.80;;
52554;SDS011;38455;52.710;6.502;2022-09-09T09:21:56;9.80;;;1.92;;
52554;SDS011;38455;52.710;6.502;2022-09-09T09:27:11;6.32;;;1.98;;
52554;SDS011;38455;52.710;6.502;2022-09-09T09:29:43;6.50;;;1.58;;
52554;SDS011;38455;52.710;6.502;2022-09-09T09:32:10;7.85;;;2.35;;
52554;SDS011;38455;52.710;6.502;2022-09-09T09:34:41;6.22;;;1.67;;
52554;SDS011;38455;52.710;6.502;2022-09-09T09:37:17;9.20;;;2.08;;
52554;SDS011;38455;52.710;6.502;2022-09-09T09:40:13;7.35;;;2.22;;
52554;SDS011;38455;52.710;6.502;2022-09-09T09:45:31;5.13;;;1.75;;
52554;SDS011;38455;52.710;6.502;2022-09-09T09:48:00;5.45;;;1.60;;
52554;SDS011;38455;52.710;6.502;2022-09-09T09:50:30;7.63;;;1.90;;
52554;SDS011;38455;52.710;6.502;2022-09-09T09:52:57;7.35;;;1.73;;
52554;SDS011;38455;52.710;6.502;2022-09-09T09:55:31;6.25;;;1.60;;
52554;SDS011;38455;52.710;6.502;2022-09-09T09:58:03;4.30;;;1.30;;
52554;SDS011;38455;52.710;6.502;2022-09-09T10:00:30;5.88;;;1.48;;
52554;SDS011;38455;52.710;6.502;2022-09-09T10:02:58;7.03;;;1.88;;
52554;SDS011;38455;52.710;6.502;2022-09-09T10:05:26;7.45;;;1.50;;
52554;SDS011;38455;52.710;6.502;2022-09-09T10:10:37;5.13;;;1.95;;
52554;SDS011;38455;52.710;6.502;2022-09-09T10:13:18;10.20;;;2.00;;
52554;SDS011;38455;52.710;6.502;2022-09-09T10:27:24;6.07;;;1.33;;
52554;SDS011;38455;52.710;6.502;2022-09-09T10:32:38;4.50;;;1.20;;
52554;SDS011;38455;52.710;6.502;2022-09-09T10:38:17;6.53;;;1.40;;
52554;SDS011;38455;52.710;6.502;2022-09-09T10:46:20;5.72;;;1.70;;
52554;SDS011;38455;52.710;6.502;2022-09-09T10:49:10;6.30;;;1.27;;
52554;SDS011;38455;52.710;6.502;2022-09-09T11:00:06;7.88;;;1.60;;
52554;SDS011;38455;52.710;6.502;2022-09-09T11:02:39;4.80;;;1.50;;
52554;SDS011;38455;52.710;6.502;2022-09-09T11:05:14;7.20;;;1.30;;
52554;SDS011;38455;52.710;6.502;2022-09-09T11:08:04;5.85;;;1.50;;
52554;SDS011;38455;52.710;6.502;2022-09-09T11:13:08;8.60;;;1.38;;
52554;SDS011;38455;52.710;6.502;2022-09-09T11:15:46;10.77;;;1.92;;
52554;SDS011;38455;52.710;6.502;2022-09-09T11:18:21;7.00;;;1.73;;
52554;SDS011;38455;52.710;6.502;2022-09-09T11:20:49;4.47;;;1.40;;
52554;SDS011;38455;52.710;6.502;2022-09-09T11:26:23;5.25;;;1.30;;
52554;SDS011;38455;52.710;6.502;2022-09-09T11:29:10;8.32;;;1.90;;
52554;SDS011;38455;52.710;6.502;2022-09-09T11:31:52;5.75;;;1.55;;
52554;SDS011;38455;52.710;6.502;2022-09-09T11:37:55;4.43;;;1.58;;
52554;SDS011;38455;52.710;6.502;2022-09-09T11:40:32;8.07;;;1.30;;
52554;SDS011;38455;52.710;6.502;2022-09-09T11:45:53;5.03;;;1.27;;
52554;SDS011;38455;52.710;6.502;2022-09-09T11:48:29;3.75;;;1.23;;
52554;SDS011;38455;52.710;6.502;2022-09-09T11:51:08;4.30;;;1.38;;
52554;SDS011;38455;52.710;6.502;2022-09-09T11:53:48;8.20;;;1.45;;
52554;SDS011;38455;52.710;6.502;2022-09-09T11:59:25;4.18;;;1.08;;
52554;SDS011;38455;52.710;6.502;2022-09-09T12:02:52;7.78;;;1.40;;
52554;SDS011;38455;52.710;6.502;2022-09-09T12:04:49;8.43;;;1.50;;
52554;SDS011;38455;52.710;6.502;2022-09-09T12:12:34;3.30;;;1.25;;
52554;SDS011;38455;52.710;6.502;2022-09-09T12:17:43;3.33;;;1.00;;
52554;SDS011;38455;52.710;6.502;2022-09-09T12:20:23;4.03;;;1.30;;
52554;SDS011;38455;52.710;6.502;2022-09-09T12:28:31;7.05;;;1.50;;
52554;SDS011;38455;52.710;6.502;2022-09-09T12:33:49;3.97;;;1.13;;
52554;SDS011;38455;52.710;6.502;2022-09-09T12:36:16;3.38;;;0.90;;
52554;SDS011;38455;52.710;6.502;2022-09-09T12:38:50;6.45;;;1.40;;
52554;SDS011;38455;52.710;6.502;2022-09-09T12:41:24;4.30;;;1.20;;
52554;SDS011;38455;52.710;6.502;2022-09-09T12:44:02;7.20;;;1.33;;
52554;SDS011;38455;52.710;6.502;2022-09-09T12:46:40;7.78;;;1.65;;
52554;SDS011;38455;52.710;6.502;2022-09-09T12:49:27;4.35;;;1.13;;
52554;SDS011;38455;52.710;6.502;2022-09-09T12:52:00;3.72;;;0.70;;
52554;SDS011;38455;52.710;6.502;2022-09-09T12:54:33;3.95;;;1.17;;
52554;SDS011;38455;52.710;6.502;2022-09-09T12:57:00;6.15;;;1.25;;
52554;SDS011;38455;52.710;6.502;2022-09-09T12:59:26;3.17;;;0.90;;
52554;SDS011;38455;52.710;6.502;2022-09-09T13:02:00;5.47;;;0.95;;
52554;SDS011;38455;52.710;6.502;2022-09-09T13:04:26;5.20;;;0.85;;
52554;SDS011;38455;52.710;6.502;2022-09-09T13:06:52;5.07;;;1.60;;
52554;SDS011;38455;52.710;6.502;2022-09-09T13:09:18;6.15;;;1.05;;
52554;SDS011;38455;52.710;6.502;2022-09-09T13:11:46;4.25;;;1.13;;
52554;SDS011;38455;52.710;6.502;2022-09-09T13:14:28;4.40;;;0.98;;
52554;SDS011;38455;52.710;6.502;2022-09-09T13:17:01;4.32;;;0.82;;
52554;SDS011;38455;52.710;6.502;2022-09-09T13:19:37;8.60;;;1.20;;
52554;SDS011;38455;52.710;6.502;2022-09-09T13:24:59;5.72;;;1.55;;
52554;SDS011;38455;52.710;6.502;2022-09-09T13:27:32;4.85;;;1.40;;
52554;SDS011;38455;52.710;6.502;2022-09-09T13:29:59;2.90;;;0.80;;
52554;SDS011;38455;52.710;6.502;2022-09-09T13:32:26;4.47;;;1.20;;
52554;SDS011;38455;52.710;6.502;2022-09-09T13:37:23;2.92;;;1.08;;
52554;SDS011;38455;52.710;6.502;2022-09-09T13:40:02;4.75;;;1.27;;
52554;SDS011;38455;52.710;6.502;2022-09-09T13:42:30;8.93;;;1.30;;
52554;SDS011;38455;52.710;6.502;2022-09-09T13:45:00;3.67;;;1.30;;
52554;SDS011;38455;52.710;6.502;2022-09-09T13:47:34;2.80;;;0.80;;
52554;SDS011;38455;52.710;6.502;2022-09-09T13:52:52;1.83;;;0.73;;
52554;SDS011;38455;52.710;6.502;2022-09-09T13:55:20;2.42;;;0.60;;
52554;SDS011;38455;52.710;6.502;2022-09-09T13:57:52;2.97;;;0.60;;
52554;SDS011;38455;52.710;6.502;2022-09-09T14:00:23;3.40;;;0.70;;
52554;SDS011;38455;52.710;6.502;2022-09-09T14:02:50;3.70;;;0.80;;
52554;SDS011;38455;52.710;6.502;2022-09-09T14:05:17;2.83;;;0.65;;
52554;SDS011;38455;52.710;6.502;2022-09-09T14:07:43;3.17;;;0.75;;
52554;SDS011;38455;52.710;6.502;2022-09-09T14:10:10;3.08;;;0.85;;
52554;SDS011;38455;52.710;6.502;2022-09-09T14:12:37;4.43;;;0.80;;
52554;SDS011;38455;52.710;6.502;2022-09-09T14:15:04;5.70;;;1.63;;
52554;SDS011;38455;52.710;6.502;2022-09-09T14:17:31;6.97;;;1.00;;
52554;SDS011;38455;52.710;6.502;2022-09-09T14:19:57;5.40;;;1.05;;
52554;SDS011;38455;52.710;6.502;2022-09-09T14:22:23;3.88;;;0.77;;
52554;SDS011;38455;52.710;6.502;2022-09-09T14:24:48;2.03;;;1.00;;
52554;SDS011;38455;52.710;6.502;2022-09-09T14:27:15;3.38;;;0.80;;
52554;SDS011;38455;52.710;6.502;2022-09-09T14:29:41;2.17;;;0.80;;
52554;SDS011;38455;52.710;6.502;2022-09-09T14:32:09;3.55;;;0.85;;
52554;SDS011;38455;52.710;6.502;2022-09-09T14:34:35;3.97;;;1.35;;
52554;SDS011;38455;52.710;6.502;2022-09-09T14:37:01;2.70;;;0.93;;
52554;SDS011;38455;52.710;6.502;2022-09-09T14:39:26;5.03;;;1.13;;
52554;SDS011;38455;52.710;6.502;2022-09-09T14:41:52;2.03;;;0.98;;
52554;SDS011;38455;52.710;6.502;2022-09-09T14:44:18;3.22;;;0.70;;
52554;SDS011;38455;52.710;6.502;2022-09-09T14:46:43;2.03;;;0.73;;
52554;SDS011;38455;52.710;6.502;2022-09-09T14:49:09;4.63;;;1.00;;
52554;SDS011;38455;52.710;6.502;2022-09-09T14:51:35;1.33;;;0.57;;
52554;SDS011;38455;52.710;6.502;2022-09-09T14:54:01;3.83;;;0.90;;
52554;SDS011;38455;52.710;6.502;2022-09-09T14:56:29;4.10;;;0.90;;
52554;SDS011;38455;52.710;6.502;2022-09-09T14:58:57;2.72;;;0.90;;
52554;SDS011;38455;52.710;6.502;2022-09-09T15:01:25;5.05;;;1.05;;
52554;SDS011;38455;52.710;6.502;2022-09-09T15:03:55;1.00;;;0.57;;
52554;SDS011;38455;52.710;6.502;2022-09-09T15:06:26;5.20;;;1.10;;
52554;SDS011;38455;52.710;6.502;2022-09-09T15:08:55;5.38;;;1.10;;
52554;SDS011;38455;52.710;6.502;2022-09-09T15:11:25;3.70;;;0.80;;
52554;SDS011;38455;52.710;6.502;2022-09-09T15:13:52;2.58;;;0.70;;
52554;SDS011;38455;52.710;6.502;2022-09-09T15:16:19;3.13;;;1.02;;
52554;SDS011;38455;52.710;6.502;2022-09-09T15:18:46;2.50;;;0.80;;
52554;SDS011;38455;52.710;6.502;2022-09-09T15:21:16;6.55;;;1.15;;
52554;SDS011;38455;52.710;6.502;2022-09-09T15:23:46;3.40;;;1.25;;
52554;SDS011;38455;52.710;6.502;2022-09-09T15:26:13;2.67;;;1.13;;
52554;SDS011;38455;52.710;6.502;2022-09-09T15:28:40;3.95;;;1.08;;
52554;SDS011;38455;52.710;6.502;2022-09-09T15:31:27;1.38;;;0.70;;
52554;SDS011;38455;52.710;6.502;2022-09-09T15:34:03;1.83;;;0.93;;
52554;SDS011;38455;52.710;6.502;2022-09-09T15:38:59;4.80;;;1.30;;
52554;SDS011;38455;52.710;6.502;2022-09-09T15:41:26;5.13;;;1.20;;
52554;SDS011;38455;52.710;6.502;2022-09-09T15:43:53;4.57;;;1.50;;
52554;SDS011;38455;52.710;6.502;2022-09-09T15:46:23;3.08;;;1.00;;
52554;SDS011;38455;52.710;6.502;2022-09-09T15:48:55;5.93;;;1.30;;
52554;SDS011;38455;52.710;6.502;2022-09-09T15:51:54;2.47;;;1.17;;
52554;SDS011;38455;52.710;6.502;2022-09-09T15:54:23;3.58;;;1.10;;
52554;SDS011;38455;52.710;6.502;2022-09-09T15:56:50;2.75;;;1.20;;
52554;SDS011;38455;52.710;6.502;2022-09-09T15:59:22;1.65;;;1.02;;
52554;SDS011;38455;52.710;6.502;2022-09-09T16:01:48;5.50;;;1.63;;
52554;SDS011;38455;52.710;6.502;2022-09-09T16:04:17;3.53;;;1.20;;
52554;SDS011;38455;52.710;6.502;2022-09-09T16:06:58;4.68;;;1.52;;
52554;SDS011;38455;52.710;6.502;2022-09-09T16:09:25;7.50;;;1.60;;
52554;SDS011;38455;52.710;6.502;2022-09-09T16:11:52;6.38;;;1.50;;
52554;SDS011;38455;52.710;6.502;2022-09-09T16:14:21;2.88;;;1.25;;
52554;SDS011;38455;52.710;6.502;2022-09-09T16:16:46;4.18;;;1.48;;
52554;SDS011;38455;52.710;6.502;2022-09-09T16:19:13;8.65;;;1.75;;
52554;SDS011;38455;52.710;6.502;2022-09-09T16:21:40;5.88;;;1.63;;
52554;SDS011;38455;52.710;6.502;2022-09-09T16:24:11;5.70;;;1.70;;
52554;SDS011;38455;52.710;6.502;2022-09-09T16:26:41;3.50;;;1.55;;
52554;SDS011;38455;52.710;6.502;2022-09-09T16:29:10;2.88;;;1.40;;
52554;SDS011;38455;52.710;6.502;2022-09-09T16:31:36;2.47;;;1.48;;
52554;SDS011;38455;52.710;6.502;2022-09-09T16:34:03;5.63;;;1.63;;
52554;SDS011;38455;52.710;6.502;2022-09-09T16:36:29;5.40;;;1.77;;
52554;SDS011;38455;52.710;6.502;2022-09-09T16:38:57;4.40;;;1.52;;
52554;SDS011;38455;52.710;6.502;2022-09-09T16:41:25;8.55;;;2.55;;
52554;SDS011;38455;52.710;6.502;2022-09-09T16:43:56;5.30;;;1.83;;
52554;SDS011;38455;52.710;6.502;2022-09-09T16:46:24;6.60;;;1.90;;
52554;SDS011;38455;52.710;6.502;2022-09-09T16:48:52;4.32;;;1.70;;
52554;SDS011;38455;52.710;6.502;2022-09-09T16:51:23;5.20;;;1.77;;
52554;SDS011;38455;52.710;6.502;2022-09-09T16:53:51;7.85;;;1.88;;
52554;SDS011;38455;52.710;6.502;2022-09-09T16:56:22;4.72;;;1.60;;
52554;SDS011;38455;52.710;6.502;2022-09-09T16:58:57;3.65;;;1.10;;
52554;SDS011;38455;52.710;6.502;2022-09-09T17:01:31;3.67;;;1.20;;
52554;SDS011;38455;52.710;6.502;2022-09-09T17:04:00;2.58;;;1.10;;
52554;SDS011;38455;52.710;6.502;2022-09-09T17:06:27;3.90;;;1.58;;
52554;SDS011;38455;52.710;6.502;2022-09-09T17:08:58;3.60;;;1.10;;
52554;SDS011;38455;52.710;6.502;2022-09-09T17:11:26;3.80;;;1.20;;
52554;SDS011;38455;52.710;6.502;2022-09-09T17:13:52;2.33;;;1.20;;
52554;SDS011;38455;52.710;6.502;2022-09-09T17:16:19;6.35;;;1.52;;
52554;SDS011;38455;52.710;6.502;2022-09-09T17:18:47;6.50;;;1.70;;
52554;SDS011;38455;52.710;6.502;2022-09-09T17:21:17;3.20;;;1.10;;
52554;SDS011;38455;52.710;6.502;2022-09-09T17:23:45;2.17;;;1.08;;
52554;SDS011;38455;52.710;6.502;2022-09-09T17:26:13;2.25;;;1.60;;
52554;SDS011;38455;52.710;6.502;2022-09-09T17:28:41;4.45;;;1.30;;